sensor_id;sensor_type;location;lat;lon;timestamp;pressure;altitude;pressure_sealevel;temperature;humidity
18988;BME280;5494;51.796;10.952;2023-05-25T00:01:33;99796.56;;;10.95;100.00
18988;BME280;5494;51.796;10.952;2023-05-25T00:04:02;99807.88;;;10.94;100.00
18988;BME280;5494;51.796;10.952;2023-05-25T00:06:32;99803.34;;;10.99;100.00
18988;BME280;5494;51.796;10.952;2023-05-25T00:09:03;99798.63;;;11.09;100.00
18988;BME280;5494;51.796;10.952;2023-05-25T00:11:31;99811.94;;;11.23;100.00
18988;BME280;5494;51.796;10.952;2023-05-25T00:13:59;99799.97;;;11.19;100.00
18988;BME280;5494;51.796;10.952;2023-05-25T00:16:27;99800.44;;;11.28;100.00
18988;BME280;5494;51.796;10.952;2023-05-25T00:18:55;99811.28;;;11.39;100.00
18988;BME280;5494;51.796;10.952;2023-05-25T00:21:23;99802.22;;;11.48;100.00
18988;BME280;5494;51.796;10.952;2023-05-25T00:23:53;99802.84;;;11.55;100.00
18988;BME280;5494;51.796;10.952;2023-05-25T00:26:21;99803.06;;;11.49;100.00
18988;BME280;5494;51.796;10.952;2023-05-25T00:28:49;99790.00;;;11.50;100.00
18988;BME280;5494;51.796;10.952;2023-05-25T00:31:17;99800.94;;;11.58;100.00
18988;BME280;5494;51.796;10.952;2023-05-25T00:33:45;99793.25;;;11.55;100.00
18988;BME280;5494;51.796;10.952;2023-05-25T00:36:13;99798.84;;;11.46;100.00
18988;BME280;5494;51.796;10.952;2023-05-25T00:38:42;99804.06;;;11.46;100.00
18988;BME280;5494;51.796;10.952;2023-05-25T00:41:12;99786.00;;;11.41;100.00
18988;BME280;5494;51.796;10.952;2023-05-25T00:43:44;99798.84;;;11.46;100.00
18988;BME280;5494;51.796;10.952;2023-05-25T00:46:14;99798.09;;;11.42;100.00
18988;BME280;5494;51.796;10.952;2023-05-25T00:48:43;99792.78;;;11.45;100.00
18988;BME280;5494;51.796;10.952;2023-05-25T00:51:14;99796.91;;;11.51;100.00
18988;BME280;5494;51.796;10.952;2023-05-25T00:53:42;99785.38;;;11.57;100.00
18988;BME280;5494;51.796;10.952;2023-05-25T00:56:17;99782.22;;;11.49;100.00
18988;BME280;5494;51.796;10.952;2023-05-25T00:58:49;99789.09;;;11.51;100.00
18988;BME280;5494;51.796;10.952;2023-05-25T01:01:19;99787.28;;;11.53;100.00
18988;BME280;5494;51.796;10.952;2023-05-25T01:03:50;99794.88;;;11.58;100.00
18988;BME280;5494;51.796;10.952;2023-05-25T01:06:21;99794.63;;;11.64;100.00
18988;BME280;5494;51.796;10.952;2023-05-25T01:08:56;99801.66;;;11.62;100.00
18988;BME280;5494;51.796;10.952;2023-05-25T01:11:33;99798.22;;;11.61;100.00
18988;BME280;5494;51.796;10.952;2023-05-25T01:14:02;99800.81;;;11.61;100.00
18988;BME280;5494;51.796;10.952;2023-05-25T01:16:32;99799.13;;;11.60;100.00
18988;BME280;5494;51.796;10.952;2023-05-25T01:19:00;99803.53;;;11.58;100.00
18988;BME280;5494;51.796;10.952;2023-05-25T01:21:35;99801.44;;;11.46;100.00
18988;BME280;5494;51.796;10.952;2023-05-25T01:24:15;99806.59;;;11.48;100.00
18988;BME280;5494;51.796;10.952;2023-05-25T01:26:57;99799.16;;;11.38;100.00
18988;BME280;5494;51.796;10.952;2023-05-25T01:29:28;99795.50;;;11.42;100.00
18988;BME280;5494;51.796;10.952;2023-05-25T01:32:00;99802.47;;;11.42;100.00
18988;BME280;5494;51.796;10.952;2023-05-25T01:34:30;99808.09;;;11.53;100.00
18988;BME280;5494;51.796;10.952;2023-05-25T01:37:00;99802.13;;;11.29;100.00
18988;BME280;5494;51.796;10.952;2023-05-25T01:39:28;99805.28;;;11.37;100.00
18988;BME280;5494;51.796;10.952;2023-05-25T01:41:56;99803.16;;;11.47;100.00
18988;BME280;5494;51.796;10.952;2023-05-25T01:44:25;99802.78;;;11.34;100.00
18988;BME280;5494;51.796;10.952;2023-05-25T01:47:02;99799.22;;;11.37;100.00
18988;BME280;5494;51.796;10.952;2023-05-25T01:49:38;99795.56;;;11.41;100.00
18988;BME280;5494;51.796;10.952;2023-05-25T01:52:18;99794.84;;;11.37;100.00
18988;BME280;5494;51.796;10.952;2023-05-25T01:54:55;99793.16;;;11.36;100.00
18988;BME280;5494;51.796;10.952;2023-05-25T01:57:27;99790.50;;;11.38;100.00
18988;BME280;5494;51.796;10.952;2023-05-25T01:59:57;99792.75;;;11.25;100.00
18988;BME280;5494;51.796;10.952;2023-05-25T02:02:41;99798.06;;;11.22;100.00
18988;BME280;5494;51.796;10.952;2023-05-25T02:05:10;99805.88;;;11.22;100.00
18988;BME280;5494;51.796;10.952;2023-05-25T02:07:40;99802.47;;;11.20;100.00
18988;BME280;5494;51.796;10.952;2023-05-25T02:10:08;99808.53;;;11.21;100.00
18988;BME280;5494;51.796;10.952;2023-05-25T02:12:36;99798.03;;;11.24;100.00
18988;BME280;5494;51.796;10.952;2023-05-25T02:15:06;99799.97;;;11.19;100.00
18988;BME280;5494;51.796;10.952;2023-05-25T02:17:37;99806.03;;;11.19;100.00
18988;BME280;5494;51.796;10.952;2023-05-25T02:20:07;99798.81;;;11.26;100.00
18988;BME280;5494;51.796;10.952;2023-05-25T02:22:35;99798.56;;;11.32;100.00
18988;BME280;5494;51.796;10.952;2023-05-25T02:25:08;99802.19;;;11.28;100.00
18988;BME280;5494;51.796;10.952;2023-05-25T02:27:36;99798.50;;;11.33;100.00
18988;BME280;5494;51.796;10.952;2023-05-25T02:30:06;99799.28;;;11.35;100.00
18988;BME280;5494;51.796;10.952;2023-05-25T02:32:35;99800.06;;;11.37;100.00
18988;BME280;5494;51.796;10.952;2023-05-25T02:35:04;99798.97;;;11.43;100.00
18988;BME280;5494;51.796;10.952;2023-05-25T02:37:32;99803.38;;;11.41;100.00
18988;BME280;5494;51.796;10.952;2023-05-25T02:40:01;99803.13;;;11.27;100.00
18988;BME280;5494;51.796;10.952;2023-05-25T02:42:31;99799.66;;;11.26;100.00
18988;BME280;5494;51.796;10.952;2023-05-25T02:44:59;99787.06;;;11.16;100.00
18988;BME280;5494;51.796;10.952;2023-05-25T02:47:28;99789.47;;;11.20;100.00
18988;BME280;5494;51.796;10.952;2023-05-25T02:49:57;99786.28;;;11.14;100.00
18988;BME280;5494;51.796;10.952;2023-05-25T02:52:25;99793.78;;;11.21;100.00
18988;BME280;5494;51.796;10.952;2023-05-25T02:54:53;99798.50;;;11.33;100.00
18988;BME280;5494;51.796;10.952;2023-05-25T02:57:29;99802.66;;;11.37;100.00
18988;BME280;5494;51.796;10.952;2023-05-25T02:59:59;99804.41;;;11.37;100.00
18988;BME280;5494;51.796;10.952;2023-05-25T03:02:28;99796.56;;;11.38;100.00
18988;BME280;5494;51.796;10.952;2023-05-25T03:04:56;99796.22;;;11.26;100.00
18988;BME280;5494;51.796;10.952;2023-05-25T03:07:31;99805.94;;;11.21;100.00
18988;BME280;5494;51.796;10.952;2023-05-25T03:09:59;99810.84;;;11.28;100.00
18988;BME280;5494;51.796;10.952;2023-05-25T03:12:27;99810.78;;;11.30;100.00
18988;BME280;5494;51.796;10.952;2023-05-25T03:14:55;99815.94;;;11.31;100.00
18988;BME280;5494;51.796;10.952;2023-05-25T03:17:24;99819.38;;;11.32;100.00
18988;BME280;5494;51.796;10.952;2023-05-25T03:19:52;99811.44;;;11.35;100.00
18988;BME280;5494;51.796;10.952;2023-05-25T03:22:20;99820.94;;;11.36;100.00
18988;BME280;5494;51.796;10.952;2023-05-25T03:24:48;99816.59;;;11.36;100.00
18988;BME280;5494;51.796;10.952;2023-05-25T03:27:17;99822.34;;;11.23;100.00
18988;BME280;5494;51.796;10.952;2023-05-25T03:29:47;99818.94;;;11.21;100.00
18988;BME280;5494;51.796;10.952;2023-05-25T03:32:15;99819.44;;;11.30;100.00
18988;BME280;5494;51.796;10.952;2023-05-25T03:34:45;99816.84;;;11.30;100.00
18988;BME280;5494;51.796;10.952;2023-05-25T03:37:15;99822.16;;;11.27;100.00
18988;BME280;5494;51.796;10.952;2023-05-25T03:39:43;99823.00;;;11.28;100.00
18988;BME280;5494;51.796;10.952;2023-05-25T03:42:11;99837.00;;;11.25;100.00
18988;BME280;5494;51.796;10.952;2023-05-25T03:44:39;99834.66;;;11.19;100.00
18988;BME280;5494;51.796;10.952;2023-05-25T03:47:08;99834.47;;;11.24;100.00
18988;BME280;5494;51.796;10.952;2023-05-25T03:49:37;99838.63;;;11.28;100.00
18988;BME280;5494;51.796;10.952;2023-05-25T03:52:06;99840.16;;;11.33;100.00
18988;BME280;5494;51.796;10.952;2023-05-25T03:54:34;99837.47;;;11.35;100.00
18988;BME280;5494;51.796;10.952;2023-05-25T03:57:03;99839.72;;;11.44;100.00
18988;BME280;5494;51.796;10.952;2023-05-25T03:59:31;99853.94;;;11.35;100.00
18988;BME280;5494;51.796;10.952;2023-05-25T04:01:59;99856.28;;;11.41;100.00
18988;BME280;5494;51.796;10.952;2023-05-25T04:04:27;99857.44;;;11.34;100.00
18988;BME280;5494;51.796;10.952;2023-05-25T04:06:56;99855.78;;;11.33;100.00
18988;BME280;5494;51.796;10.952;2023-05-25T04:09:25;99860.84;;;11.36;100.00
18988;BME280;5494;51.796;10.952;2023-05-25T04:11:53;99861.59;;;11.40;100.00
18988;BME280;5494;51.796;10.952;2023-05-25T04:14:21;99860.72;;;11.39;100.00
18988;BME280;5494;51.796;10.952;2023-05-25T04:16:49;99859.09;;;11.37;100.00
18988;BME280;5494;51.796;10.952;2023-05-25T04:19:19;99855.69;;;11.35;100.00
18988;BME280;5494;51.796;10.952;2023-05-25T04:21:47;99858.44;;;11.32;100.00
18988;BME280;5494;51.796;10.952;2023-05-25T04:24:15;99872.34;;;11.31;100.00
18988;BME280;5494;51.796;10.952;2023-05-25T04:26:44;99875.38;;;11.42;100.00
18988;BME280;5494;51.796;10.952;2023-05-25T04:29:12;99872.47;;;11.50;100.00
18988;BME280;5494;51.796;10.952;2023-05-25T04:32:00;99868.66;;;11.58;100.00
18988;BME280;5494;51.796;10.952;2023-05-25T04:34:44;99870.03;;;11.67;100.00
18988;BME280;5494;51.796;10.952;2023-05-25T04:37:17;99873.28;;;11.72;100.00
18988;BME280;5494;51.796;10.952;2023-05-25T04:39:47;99874.72;;;11.80;100.00
18988;BME280;5494;51.796;10.952;2023-05-25T04:42:16;99860.69;;;11.83;100.00
18988;BME280;5494;51.796;10.952;2023-05-25T04:44:45;99864.81;;;11.89;100.00
18988;BME280;5494;51.796;10.952;2023-05-25T04:47:14;99876.69;;;11.96;100.00
18988;BME280;5494;51.796;10.952;2023-05-25T04:49:42;99880.59;;;12.06;100.00
18988;BME280;5494;51.796;10.952;2023-05-25T04:52:11;99881.63;;;12.22;100.00
18988;BME280;5494;51.796;10.952;2023-05-25T04:54:39;99876.09;;;12.30;100.00
18988;BME280;5494;51.796;10.952;2023-05-25T04:57:07;99874.72;;;12.21;100.00
18988;BME280;5494;51.796;10.952;2023-05-25T04:59:37;99872.22;;;12.18;100.00
18988;BME280;5494;51.796;10.952;2023-05-25T05:02:04;99874.72;;;12.21;100.00
18988;BME280;5494;51.796;10.952;2023-05-25T05:04:34;99871.78;;;12.49;100.00
18988;BME280;5494;51.796;10.952;2023-05-25T05:07:04;99867.63;;;12.63;100.00
18988;BME280;5494;51.796;10.952;2023-05-25T05:09:32;99866.50;;;12.88;100.00
18988;BME280;5494;51.796;10.952;2023-05-25T05:12:01;99869.13;;;13.07;100.00
18988;BME280;5494;51.796;10.952;2023-05-25T05:14:34;99857.56;;;13.31;100.00
18988;BME280;5494;51.796;10.952;2023-05-25T05:17:04;99857.44;;;13.51;100.00
18988;BME280;5494;51.796;10.952;2023-05-25T05:19:32;99871.84;;;13.60;100.00
18988;BME280;5494;51.796;10.952;2023-05-25T05:22:02;99854.94;;;13.67;100.00
18988;BME280;5494;51.796;10.952;2023-05-25T05:24:30;99861.69;;;13.71;100.00
18988;BME280;5494;51.796;10.952;2023-05-25T05:26:58;99865.63;;;13.97;100.00
18988;BME280;5494;51.796;10.952;2023-05-25T05:29:40;99870.63;;;13.84;100.00
18988;BME280;5494;51.796;10.952;2023-05-25T05:32:10;99866.88;;;13.90;100.00
18988;BME280;5494;51.796;10.952;2023-05-25T05:34:38;99867.31;;;13.98;100.00
18988;BME280;5494;51.796;10.952;2023-05-25T05:37:16;99875.47;;;13.92;100.00
18988;BME280;5494;51.796;10.952;2023-05-25T05:39:44;99876.06;;;13.97;100.00
18988;BME280;5494;51.796;10.952;2023-05-25T05:42:13;99879.25;;;14.03;100.00
18988;BME280;5494;51.796;10.952;2023-05-25T05:44:41;99885.06;;;14.26;100.00
18988;BME280;5494;51.796;10.952;2023-05-25T05:47:11;99892.44;;;14.35;100.00
18988;BME280;5494;51.796;10.952;2023-05-25T05:49:39;99897.06;;;14.30;100.00
18988;BME280;5494;51.796;10.952;2023-05-25T05:52:08;99895.22;;;14.32;100.00
18988;BME280;5494;51.796;10.952;2023-05-25T05:54:36;99901.38;;;14.31;100.00
18988;BME280;5494;51.796;10.952;2023-05-25T05:57:09;99897.25;;;14.09;100.00
18988;BME280;5494;51.796;10.952;2023-05-25T05:59:37;99913.91;;;14.07;100.00
18988;BME280;5494;51.796;10.952;2023-05-25T06:02:06;99911.69;;;13.99;100.00
18988;BME280;5494;51.796;10.952;2023-05-25T06:04:35;99916.31;;;13.94;100.00
18988;BME280;5494;51.796;10.952;2023-05-25T06:07:04;99908.81;;;14.04;100.00
18988;BME280;5494;51.796;10.952;2023-05-25T06:09:32;99915.94;;;14.02;100.00
18988;BME280;5494;51.796;10.952;2023-05-25T06:12:00;99917.69;;;14.18;100.00
18988;BME280;5494;51.796;10.952;2023-05-25T06:14:29;99922.16;;;14.16;100.00
18988;BME280;5494;51.796;10.952;2023-05-25T06:17:00;99917.47;;;14.23;100.00
18988;BME280;5494;51.796;10.952;2023-05-25T06:19:28;99921.38;;;14.32;100.00
18988;BME280;5494;51.796;10.952;2023-05-25T06:21:58;99917.69;;;14.36;100.00
18988;BME280;5494;51.796;10.952;2023-05-25T06:24:25;99922.38;;;14.64;100.00
18988;BME280;5494;51.796;10.952;2023-05-25T06:26:53;99915.19;;;14.67;97.75
18988;BME280;5494;51.796;10.952;2023-05-25T06:29:21;99918.63;;;15.01;96.01
18988;BME280;5494;51.796;10.952;2023-05-25T06:31:49;99921.28;;;15.16;94.60
18988;BME280;5494;51.796;10.952;2023-05-25T06:34:18;99915.13;;;15.33;90.18
18988;BME280;5494;51.796;10.952;2023-05-25T06:36:47;99919.34;;;15.35;86.58
18988;BME280;5494;51.796;10.952;2023-05-25T06:39:16;99919.09;;;15.40;85.29
18988;BME280;5494;51.796;10.952;2023-05-25T06:41:44;99918.41;;;16.43;81.45
18988;BME280;5494;51.796;10.952;2023-05-25T06:44:24;99916.06;;;17.92;72.92
18988;BME280;5494;51.796;10.952;2023-05-25T06:46:52;99916.91;;;19.44;61.11
18988;BME280;5494;51.796;10.952;2023-05-25T06:49:20;99907.41;;;20.02;56.23
18988;BME280;5494;51.796;10.952;2023-05-25T06:51:48;99912.88;;;20.69;53.80
18988;BME280;5494;51.796;10.952;2023-05-25T06:54:18;99906.88;;;20.67;52.22
18988;BME280;5494;51.796;10.952;2023-05-25T06:56:46;99910.59;;;20.98;50.99
18988;BME280;5494;51.796;10.952;2023-05-25T06:59:14;99912.63;;;21.05;50.74
18988;BME280;5494;51.796;10.952;2023-05-25T07:01:45;99905.09;;;20.67;52.14
18988;BME280;5494;51.796;10.952;2023-05-25T07:04:13;99903.03;;;21.04;50.56
18988;BME280;5494;51.796;10.952;2023-05-25T07:06:44;99907.13;;;21.19;49.22
18988;BME280;5494;51.796;10.952;2023-05-25T07:09:14;99902.34;;;21.68;48.60
18988;BME280;5494;51.796;10.952;2023-05-25T07:11:44;99900.69;;;21.55;49.28
18988;BME280;5494;51.796;10.952;2023-05-25T07:14:12;99896.91;;;21.69;47.17
18988;BME280;5494;51.796;10.952;2023-05-25T07:16:40;99906.44;;;21.92;46.90
18988;BME280;5494;51.796;10.952;2023-05-25T07:19:10;99906.19;;;21.95;47.23
18988;BME280;5494;51.796;10.952;2023-05-25T07:21:38;99907.50;;;22.12;46.86
18988;BME280;5494;51.796;10.952;2023-05-25T07:24:06;99907.25;;;21.72;48.53
18988;BME280;5494;51.796;10.952;2023-05-25T07:26:35;99911.44;;;21.75;46.10
18988;BME280;5494;51.796;10.952;2023-05-25T07:29:04;99916.03;;;21.30;47.29
18988;BME280;5494;51.796;10.952;2023-05-25T07:31:32;99908.69;;;21.76;47.57
18988;BME280;5494;51.796;10.952;2023-05-25T07:34:00;99906.81;;;22.40;44.57
18988;BME280;5494;51.796;10.952;2023-05-25T07:36:28;99906.50;;;22.75;43.31
18988;BME280;5494;51.796;10.952;2023-05-25T07:38:57;99913.78;;;22.62;43.86
18988;BME280;5494;51.796;10.952;2023-05-25T07:41:25;99917.59;;;21.75;45.43
18988;BME280;5494;51.796;10.952;2023-05-25T07:43:53;99911.50;;;21.64;46.13
18988;BME280;5494;51.796;10.952;2023-05-25T07:46:22;99907.44;;;21.48;46.99
18988;BME280;5494;51.796;10.952;2023-05-25T07:48:51;99910.78;;;21.93;45.38
18988;BME280;5494;51.796;10.952;2023-05-25T07:51:20;99920.00;;;22.10;44.80
18988;BME280;5494;51.796;10.952;2023-05-25T07:53:52;99919.25;;;22.61;42.97
18988;BME280;5494;51.796;10.952;2023-05-25T07:56:21;99918.72;;;22.88;42.58
18988;BME280;5494;51.796;10.952;2023-05-25T07:58:49;99918.06;;;23.05;42.73
18988;BME280;5494;51.796;10.952;2023-05-25T08:01:17;99922.34;;;22.66;42.60
18988;BME280;5494;51.796;10.952;2023-05-25T08:03:46;99923.69;;;21.98;44.42
18988;BME280;5494;51.796;10.952;2023-05-25T08:06:16;99927.63;;;22.87;42.60
18988;BME280;5494;51.796;10.952;2023-05-25T08:08:44;99929.41;;;23.07;41.29
18988;BME280;5494;51.796;10.952;2023-05-25T08:11:14;99928.13;;;23.41;40.21
18988;BME280;5494;51.796;10.952;2023-05-25T08:13:42;99917.28;;;23.64;39.89
18988;BME280;5494;51.796;10.952;2023-05-25T08:16:10;99934.63;;;22.88;41.66
18988;BME280;5494;51.796;10.952;2023-05-25T08:18:38;99924.16;;;22.24;41.83
18988;BME280;5494;51.796;10.952;2023-05-25T08:21:11;99927.91;;;21.24;46.18
18988;BME280;5494;51.796;10.952;2023-05-25T08:23:39;99927.44;;;22.16;43.85
18988;BME280;5494;51.796;10.952;2023-05-25T08:26:09;99929.94;;;21.97;43.87
18988;BME280;5494;51.796;10.952;2023-05-25T08:28:57;99927.72;;;21.70;44.62
18988;BME280;5494;51.796;10.952;2023-05-25T08:31:25;99926.09;;;21.79;44.12
18988;BME280;5494;51.796;10.952;2023-05-25T08:33:53;99923.41;;;22.33;42.57
18988;BME280;5494;51.796;10.952;2023-05-25T08:36:23;99923.84;;;22.17;43.17
18988;BME280;5494;51.796;10.952;2023-05-25T08:38:51;99928.19;;;22.90;41.40
18988;BME280;5494;51.796;10.952;2023-05-25T08:41:19;99924.56;;;23.62;39.63
18988;BME280;5494;51.796;10.952;2023-05-25T08:43:49;99925.97;;;23.75;37.61
18988;BME280;5494;51.796;10.952;2023-05-25T08:46:28;99930.84;;;23.61;38.66
18988;BME280;5494;51.796;10.952;2023-05-25T08:49:03;99918.84;;;23.95;38.76
18988;BME280;5494;51.796;10.952;2023-05-25T08:51:36;99932.66;;;23.20;40.48
18988;BME280;5494;51.796;10.952;2023-05-25T08:54:08;99934.22;;;23.32;41.70
18988;BME280;5494;51.796;10.952;2023-05-25T08:56:47;99934.88;;;23.15;41.25
18988;BME280;5494;51.796;10.952;2023-05-25T08:59:30;99923.75;;;23.90;40.75
18988;BME280;5494;51.796;10.952;2023-05-25T09:02:16;99931.72;;;23.90;39.33
18988;BME280;5494;51.796;10.952;2023-05-25T09:04:47;99941.06;;;22.12;42.92
18988;BME280;5494;51.796;10.952;2023-05-25T09:07:17;99944.94;;;20.75;47.22
18988;BME280;5494;51.796;10.952;2023-05-25T09:09:47;99949.47;;;20.16;50.35
18988;BME280;5494;51.796;10.952;2023-05-25T09:12:21;99946.34;;;19.87;50.84
18988;BME280;5494;51.796;10.952;2023-05-25T09:14:49;99949.53;;;19.80;51.72
18988;BME280;5494;51.796;10.952;2023-05-25T09:17:18;99947.66;;;19.93;53.17
18988;BME280;5494;51.796;10.952;2023-05-25T09:19:47;99954.19;;;19.76;50.47
18988;BME280;5494;51.796;10.952;2023-05-25T09:22:16;99941.28;;;20.19;50.21
18988;BME280;5494;51.796;10.952;2023-05-25T09:24:45;99944.34;;;20.26;48.90
18988;BME280;5494;51.796;10.952;2023-05-25T09:27:17;99951.31;;;21.62;44.20
18988;BME280;5494;51.796;10.952;2023-05-25T09:29:47;99952.34;;;22.46;43.10
18988;BME280;5494;51.796;10.952;2023-05-25T09:32:16;99952.22;;;22.89;41.90
18988;BME280;5494;51.796;10.952;2023-05-25T09:34:45;99949.53;;;23.09;42.91
18988;BME280;5494;51.796;10.952;2023-05-25T09:37:16;99946.34;;;23.55;39.93
18988;BME280;5494;51.796;10.952;2023-05-25T09:39:46;99957.47;;;23.09;40.88
18988;BME280;5494;51.796;10.952;2023-05-25T09:42:15;99959.75;;;21.45;44.56
18988;BME280;5494;51.796;10.952;2023-05-25T09:44:44;99952.91;;;21.31;44.97
18988;BME280;5494;51.796;10.952;2023-05-25T09:47:12;99951.00;;;21.33;45.09
18988;BME280;5494;51.796;10.952;2023-05-25T09:49:42;99953.13;;;21.93;45.44
18988;BME280;5494;51.796;10.952;2023-05-25T09:52:14;99953.38;;;22.33;44.06
18988;BME280;5494;51.796;10.952;2023-05-25T09:54:45;99953.47;;;21.68;42.71
18988;BME280;5494;51.796;10.952;2023-05-25T09:57:14;99953.53;;;21.89;44.70
18988;BME280;5494;51.796;10.952;2023-05-25T09:59:43;99964.59;;;21.17;45.37
18988;BME280;5494;51.796;10.952;2023-05-25T10:02:12;99958.97;;;21.76;45.15
18988;BME280;5494;51.796;10.952;2023-05-25T10:04:41;99960.41;;;22.65;43.38
18988;BME280;5494;51.796;10.952;2023-05-25T10:07:12;99961.25;;;22.65;42.04
18988;BME280;5494;51.796;10.952;2023-05-25T10:09:46;99956.00;;;22.96;40.96
18988;BME280;5494;51.796;10.952;2023-05-25T10:12:18;99961.31;;;23.26;39.01
18988;BME280;5494;51.796;10.952;2023-05-25T10:14:50;99963.78;;;23.48;38.85
18988;BME280;5494;51.796;10.952;2023-05-25T10:17:22;99962.50;;;22.09;40.44
18988;BME280;5494;51.796;10.952;2023-05-25T10:19:56;99966.59;;;22.13;41.09
18988;BME280;5494;51.796;10.952;2023-05-25T10:22:31;99962.88;;;22.77;41.03
18988;BME280;5494;51.796;10.952;2023-05-25T10:25:07;99967.88;;;23.22;40.35
18988;BME280;5494;51.796;10.952;2023-05-25T10:27:40;99970.63;;;22.69;38.98
18988;BME280;5494;51.796;10.952;2023-05-25T10:30:12;99965.81;;;21.90;41.59
18988;BME280;5494;51.796;10.952;2023-05-25T10:32:43;99967.84;;;22.50;42.09
18988;BME280;5494;51.796;10.952;2023-05-25T10:35:13;99970.84;;;21.16;42.27
18988;BME280;5494;51.796;10.952;2023-05-25T10:37:42;99961.13;;;21.82;43.44
18988;BME280;5494;51.796;10.952;2023-05-25T10:40:14;99965.78;;;22.33;41.82
18988;BME280;5494;51.796;10.952;2023-05-25T10:42:44;99967.84;;;22.50;41.37
18988;BME280;5494;51.796;10.952;2023-05-25T10:45:13;99965.00;;;22.63;41.12
18988;BME280;5494;51.796;10.952;2023-05-25T10:47:42;99955.56;;;22.49;42.65
18988;BME280;5494;51.796;10.952;2023-05-25T10:50:20;99961.19;;;22.76;41.56
18988;BME280;5494;51.796;10.952;2023-05-25T10:53:02;99951.50;;;22.66;40.51
18988;BME280;5494;51.796;10.952;2023-05-25T10:55:47;99956.34;;;22.40;40.21
18988;BME280;5494;51.796;10.952;2023-05-25T10:58:18;99957.63;;;21.28;42.82
18988;BME280;5494;51.796;10.952;2023-05-25T11:00:57;99960.47;;;21.13;43.99
18988;BME280;5494;51.796;10.952;2023-05-25T11:03:53;99957.47;;;21.51;43.56
18988;BME280;5494;51.796;10.952;2023-05-25T11:09:30;99950.38;;;20.74;45.25
18988;BME280;5494;51.796;10.952;2023-05-25T11:12:03;99945.13;;;21.30;43.62
18988;BME280;5494;51.796;10.952;2023-05-25T11:14:33;99956.31;;;21.22;44.76
18988;BME280;5494;51.796;10.952;2023-05-25T11:17:05;99953.63;;;21.44;43.66
18988;BME280;5494;51.796;10.952;2023-05-25T11:19:44;99949.16;;;21.45;44.81
18988;BME280;5494;51.796;10.952;2023-05-25T11:22:18;99956.44;;;21.20;44.18
18988;BME280;5494;51.796;10.952;2023-05-25T11:24:48;99960.94;;;20.74;44.69
18988;BME280;5494;51.796;10.952;2023-05-25T11:27:22;99961.53;;;20.77;45.67
18988;BME280;5494;51.796;10.952;2023-05-25T11:29:53;99954.44;;;20.78;45.69
18988;BME280;5494;51.796;10.952;2023-05-25T11:32:23;99956.13;;;20.90;45.80
18988;BME280;5494;51.796;10.952;2023-05-25T11:34:53;99957.97;;;20.43;45.90
18988;BME280;5494;51.796;10.952;2023-05-25T11:37:25;99954.34;;;20.33;45.93
18988;BME280;5494;51.796;10.952;2023-05-25T11:39:54;99965.53;;;20.13;45.52
18988;BME280;5494;51.796;10.952;2023-05-25T11:42:24;99961.00;;;19.06;46.58
18988;BME280;5494;51.796;10.952;2023-05-25T11:44:53;99957.03;;;19.49;48.34
18988;BME280;5494;51.796;10.952;2023-05-25T11:47:21;99952.66;;;19.85;46.13
18988;BME280;5494;51.796;10.952;2023-05-25T11:49:54;99948.69;;;19.79;46.46
18988;BME280;5494;51.796;10.952;2023-05-25T11:52:27;99956.31;;;20.19;45.26
18988;BME280;5494;51.796;10.952;2023-05-25T11:54:55;99949.94;;;20.45;44.67
18988;BME280;5494;51.796;10.952;2023-05-25T11:57:24;99949.75;;;20.59;44.98
18988;BME280;5494;51.796;10.952;2023-05-25T11:59:55;99946.00;;;20.51;44.33
18988;BME280;5494;51.796;10.952;2023-05-25T12:02:23;99947.38;;;21.01;43.06
18988;BME280;5494;51.796;10.952;2023-05-25T12:04:53;99946.53;;;21.45;41.86
18988;BME280;5494;51.796;10.952;2023-05-25T12:07:23;99948.16;;;21.68;41.48
18988;BME280;5494;51.796;10.952;2023-05-25T12:10:03;99944.44;;;21.71;42.30
18988;BME280;5494;51.796;10.952;2023-05-25T12:12:41;99940.97;;;21.70;42.13
18988;BME280;5494;51.796;10.952;2023-05-25T12:15:11;99943.66;;;21.14;45.74
18988;BME280;5494;51.796;10.952;2023-05-25T12:17:41;99954.56;;;19.59;49.42
18988;BME280;5494;51.796;10.952;2023-05-25T12:20:11;99949.94;;;19.62;51.40
18988;BME280;5494;51.796;10.952;2023-05-25T12:22:40;99952.28;;;19.54;53.15
18988;BME280;5494;51.796;10.952;2023-05-25T12:25:10;99956.06;;;19.50;53.51
18988;BME280;5494;51.796;10.952;2023-05-25T12:27:40;99958.00;;;19.36;53.64
18988;BME280;5494;51.796;10.952;2023-05-25T12:30:10;99954.41;;;19.24;55.32
18988;BME280;5494;51.796;10.952;2023-05-25T12:32:52;99942.69;;;19.41;55.97
18988;BME280;5494;51.796;10.952;2023-05-25T12:35:21;99947.19;;;19.51;55.59
18988;BME280;5494;51.796;10.952;2023-05-25T12:37:49;99954.88;;;18.67;56.30
18988;BME280;5494;51.796;10.952;2023-05-25T12:40:19;99942.34;;;18.71;58.42
18988;BME280;5494;51.796;10.952;2023-05-25T12:42:56;99954.22;;;19.02;55.42
18988;BME280;5494;51.796;10.952;2023-05-25T12:45:24;99950.84;;;19.25;56.15
18988;BME280;5494;51.796;10.952;2023-05-25T12:47:52;99953.00;;;18.95;54.23
18988;BME280;5494;51.796;10.952;2023-05-25T12:50:20;99951.06;;;19.22;54.54
18988;BME280;5494;51.796;10.952;2023-05-25T12:52:48;99951.72;;;19.13;53.52
18988;BME280;5494;51.796;10.952;2023-05-25T12:55:22;99949.22;;;18.73;53.62
18988;BME280;5494;51.796;10.952;2023-05-25T12:57:53;99951.09;;;18.97;53.79
18988;BME280;5494;51.796;10.952;2023-05-25T13:00:25;99939.34;;;19.26;53.56
18988;BME280;5494;51.796;10.952;2023-05-25T13:02:53;99949.53;;;19.56;53.74
18988;BME280;5494;51.796;10.952;2023-05-25T13:05:24;99953.00;;;19.80;52.65
18988;BME280;5494;51.796;10.952;2023-05-25T13:07:54;99938.97;;;19.80;51.18
18988;BME280;5494;51.796;10.952;2023-05-25T13:10:24;99936.72;;;19.86;52.06
18988;BME280;5494;51.796;10.952;2023-05-25T13:12:52;99952.81;;;19.47;51.43
18988;BME280;5494;51.796;10.952;2023-05-25T13:15:25;99948.47;;;18.71;54.13